createdAt,value
2023-04-08T00:01:13.435Z,36.47
2023-04-08T00:03:40.018Z,39.78
2023-04-08T00:06:08.277Z,39.38
2023-04-08T00:08:34.773Z,44.38
2023-04-08T00:11:01.396Z,40.80
2023-04-08T00:13:27.897Z,38.67
2023-04-08T00:15:54.338Z,43.38
2023-04-08T00:18:20.835Z,41.30
2023-04-08T00:20:47.330Z,45.55
2023-04-08T00:23:13.855Z,48.50
2023-04-08T00:25:40.821Z,48.10
2023-04-08T00:28:07.280Z,50.45
2023-04-08T00:30:33.947Z,48.28
2023-04-08T00:33:00.493Z,48.65
2023-04-08T00:35:27.299Z,48.05
2023-04-08T00:37:53.757Z,48.05
2023-04-08T00:40:20.533Z,53.15
2023-04-08T00:42:47.199Z,51.15
2023-04-08T00:45:13.753Z,54.90
2023-04-08T00:47:40.303Z,55.00
2023-04-08T00:50:13.015Z,61.90
2023-04-08T00:52:39.526Z,62.28
2023-04-08T00:55:06.601Z,60.35
2023-04-08T00:57:33.319Z,64.88
2023-04-08T01:00:00.430Z,67.85
2023-04-08T01:02:32.119Z,70.68
2023-04-08T01:09:44.552Z,70.15
2023-04-08T01:12:13.973Z,72.15
2023-04-08T01:14:44.882Z,69.03
2023-04-08T01:17:11.712Z,68.22
2023-04-08T01:19:41.654Z,67.80
2023-04-08T01:22:34.217Z,76.32
2023-04-08T01:25:15.459Z,77.22
2023-04-08T01:27:43.226Z,78.75
2023-04-08T01:30:11.009Z,74.18
2023-04-08T01:32:40.093Z,72.93
2023-04-08T01:35:07.919Z,71.88
2023-04-08T01:37:35.810Z,81.68
2023-04-08T01:40:03.317Z,73.25
2023-04-08T01:42:30.455Z,82.20
2023-04-08T01:45:00.681Z,75.80
2023-04-08T01:47:28.838Z,80.85
2023-04-08T01:49:56.166Z,77.80
2023-04-08T01:52:23.945Z,90.20
2023-04-08T01:54:50.390Z,84.13
2023-04-08T01:57:22.827Z,74.20
2023-04-08T01:59:52.441Z,86.15
2023-04-08T02:02:24.567Z,78.20
2023-04-08T02:04:51.357Z,78.63
2023-04-08T02:07:18.624Z,81.00
2023-04-08T02:09:45.197Z,77.32
2023-04-08T02:12:11.974Z,85.85
2023-04-08T02:14:38.995Z,81.78
2023-04-08T02:17:10.087Z,82.28
2023-04-08T02:19:44.572Z,90.57
2023-04-08T02:22:18.603Z,86.05
2023-04-08T02:24:46.628Z,93.85
2023-04-08T02:27:13.276Z,84.40
2023-04-08T02:29:41.790Z,85.80
2023-04-08T02:32:12.230Z,80.57
2023-04-08T02:34:41.629Z,83.53
2023-04-08T02:37:09.321Z,88.80
2023-04-08T02:39:36.076Z,84.53
2023-04-08T02:42:05.366Z,85.13
2023-04-08T02:44:31.806Z,89.85
2023-04-08T02:46:58.241Z,85.75
2023-04-08T02:49:24.690Z,87.95
2023-04-08T02:51:51.138Z,77.70
2023-04-08T02:54:17.620Z,79.97
2023-04-08T02:56:44.111Z,86.63
2023-04-08T02:59:10.653Z,86.30
2023-04-08T03:01:37.229Z,89.88
2023-04-08T03:04:03.869Z,91.28
2023-04-08T03:06:31.499Z,82.28
2023-04-08T03:08:57.957Z,79.93
2023-04-08T03:11:24.445Z,91.70
2023-04-08T03:13:50.972Z,80.75
2023-04-08T03:16:17.447Z,89.35
2023-04-08T03:18:43.874Z,83.68
2023-04-08T03:21:10.652Z,83.25
2023-04-08T03:23:37.114Z,88.53
2023-04-08T03:26:03.516Z,95.40
2023-04-08T03:28:29.939Z,92.88
2023-04-08T03:30:56.405Z,87.15
2023-04-08T03:33:22.926Z,93.55
2023-04-08T03:35:49.367Z,94.32
2023-04-08T03:38:15.799Z,97.63
2023-04-08T03:40:42.328Z,89.65
2023-04-08T03:43:08.856Z,94.72
2023-04-08T03:45:35.336Z,85.22
2023-04-08T03:48:01.899Z,89.93
2023-04-08T03:50:28.499Z,97.68
2023-04-08T03:52:54.914Z,97.03
2023-04-08T03:55:21.378Z,102.45
2023-04-08T03:57:47.961Z,103.28
2023-04-08T04:00:14.916Z,104.28
2023-04-08T04:15:57.576Z,101.30
2023-04-08T04:18:24.096Z,105.25
2023-04-08T04:20:50.697Z,106.78
2023-04-08T04:23:17.113Z,107.10
2023-04-08T04:25:44.322Z,109.28
2023-04-08T06:27:27.306Z,104.30
2023-04-08T07:28:26.794Z,83.55
2023-04-08T07:30:53.402Z,84.13
2023-04-08T07:33:19.945Z,84.22
2023-04-08T07:35:47.029Z,87.65
2023-04-08T07:38:13.600Z,92.47
2023-04-08T07:40:40.282Z,88.50
2023-04-08T07:43:06.834Z,85.93
2023-04-08T07:45:33.264Z,86.53
2023-04-08T07:47:59.799Z,81.35
2023-04-08T07:50:26.588Z,82.38
2023-04-08T07:52:53.421Z,80.80
2023-04-08T07:55:19.864Z,86.53
2023-04-08T07:57:46.612Z,83.20
2023-04-08T08:00:20.690Z,79.93
2023-04-08T08:02:48.432Z,88.88
2023-04-08T08:05:15.075Z,84.32
2023-04-08T08:07:41.751Z,78.65
2023-04-08T08:10:09.304Z,84.10
2023-04-08T08:12:35.914Z,80.35
2023-04-08T08:15:02.813Z,81.57
2023-04-08T08:17:31.083Z,78.22
2023-04-08T08:19:57.816Z,82.25
2023-04-08T08:22:24.303Z,78.20
2023-04-08T08:24:56.994Z,76.32
2023-04-08T08:27:23.935Z,76.68
2023-04-08T08:29:50.955Z,81.88
2023-04-08T08:32:17.689Z,75.30
2023-04-08T08:34:44.110Z,72.32
2023-04-08T08:37:10.592Z,71.55
2023-04-08T08:39:37.041Z,77.97
2023-04-08T08:42:03.497Z,70.00
2023-04-08T08:44:30.720Z,79.28
2023-04-08T09:00:37.480Z,71.10
2023-04-08T09:53:57.333Z,62.40
2023-04-08T10:10:18.990Z,65.47
2023-04-08T10:12:45.739Z,64.70
2023-04-08T10:26:31.796Z,39.30
2023-04-08T10:29:18.184Z,39.75
2023-04-08T10:31:48.908Z,48.17
2023-04-08T10:34:20.213Z,50.13
2023-04-08T10:36:47.673Z,49.72
2023-04-08T10:39:15.492Z,47.75
2023-04-08T10:41:45.809Z,47.53
2023-04-08T10:44:20.260Z,46.25
2023-04-08T10:46:48.005Z,46.25
2023-04-08T10:49:15.658Z,41.75
2023-04-08T10:51:44.271Z,46.67
2023-04-08T10:54:19.072Z,48.80
2023-04-08T10:56:53.513Z,43.72
2023-04-08T10:59:30.898Z,45.55
2023-04-08T11:01:58.221Z,49.13
2023-04-08T11:04:25.793Z,46.15
2023-04-08T11:06:52.615Z,45.88
2023-04-08T11:09:19.482Z,42.20
2023-04-08T11:11:47.132Z,41.13
2023-04-08T11:14:13.910Z,45.63
2023-04-08T11:16:40.754Z,42.75
2023-04-08T11:19:07.846Z,43.85
2023-04-08T11:21:38.543Z,47.00
2023-04-08T11:24:12.003Z,40.90
2023-04-08T11:26:39.046Z,37.05
2023-04-08T11:29:06.753Z,34.55
2023-04-08T11:31:34.519Z,41.53
2023-04-08T11:34:01.137Z,38.38
2023-04-08T11:36:29.067Z,39.20
2023-04-08T11:38:55.862Z,39.85
2023-04-08T11:41:22.973Z,39.30
2023-04-08T11:43:53.955Z,39.08
2023-04-08T11:46:20.732Z,39.30
2023-04-08T11:49:13.367Z,35.13
2023-04-08T11:51:58.865Z,39.80
2023-04-08T11:54:32.712Z,43.67
2023-04-08T11:56:59.470Z,42.00
2023-04-08T11:59:28.800Z,33.05
2023-04-08T12:01:56.033Z,36.70
2023-04-08T12:04:22.630Z,36.95
2023-04-08T12:06:49.769Z,37.95
2023-04-08T12:09:16.431Z,38.42
2023-04-08T12:11:42.894Z,33.35
2023-04-08T12:14:09.669Z,31.88
2023-04-08T12:16:36.385Z,33.55
2023-04-08T12:19:03.104Z,32.63
2023-04-08T12:21:29.786Z,33.92
2023-04-08T12:23:56.980Z,29.90
2023-04-08T12:26:23.446Z,27.15
2023-04-08T12:28:50.003Z,25.38
2023-04-08T12:31:16.776Z,20.75
2023-04-08T12:33:43.267Z,22.27
2023-04-08T12:36:12.198Z,24.13
2023-04-08T12:38:40.199Z,22.00
2023-04-08T12:41:07.713Z,21.10
2023-04-08T12:43:34.538Z,17.67
2023-04-08T12:46:02.059Z,21.92
2023-04-08T12:48:28.629Z,22.83
2023-04-08T12:50:55.082Z,21.00
2023-04-08T12:53:21.641Z,22.67
2023-04-08T12:55:49.302Z,24.02
2023-04-08T12:58:16.914Z,22.77
2023-04-08T13:00:46.605Z,22.42
2023-04-08T13:03:14.046Z,21.90
2023-04-08T13:05:43.711Z,25.88
2023-04-08T13:08:12.382Z,23.52
2023-04-08T13:10:39.038Z,22.63
2023-04-08T13:13:05.523Z,20.77
2023-04-08T13:15:31.936Z,18.52
2023-04-08T13:17:58.700Z,17.40
2023-04-08T13:20:26.272Z,17.63
2023-04-08T13:22:53.313Z,20.15
2023-04-08T13:25:20.055Z,16.70
2023-04-08T13:27:46.631Z,14.45
2023-04-08T13:30:13.624Z,15.88
2023-04-08T13:32:40.649Z,15.15
2023-04-08T13:35:07.647Z,14.98
2023-04-08T13:37:34.113Z,14.75
2023-04-08T13:40:00.914Z,19.30
2023-04-08T13:42:27.654Z,14.13
2023-04-08T13:44:54.153Z,18.70
2023-04-08T13:47:20.871Z,18.13
2023-04-08T13:49:47.350Z,18.75
2023-04-08T13:52:14.000Z,17.55
2023-04-08T13:54:40.660Z,17.85
2023-04-08T13:57:07.494Z,16.63
2023-04-08T13:59:34.120Z,14.15
2023-04-08T14:02:00.800Z,17.40
2023-04-08T14:04:27.444Z,18.13
2023-04-08T14:06:53.993Z,18.70
2023-04-08T14:09:20.946Z,17.10
2023-04-08T14:11:47.380Z,17.08
2023-04-08T14:14:14.080Z,15.20
2023-04-08T14:16:41.662Z,16.17
2023-04-08T14:19:08.538Z,17.13
2023-04-08T14:21:35.017Z,16.95
2023-04-08T14:24:02.651Z,15.55
2023-04-08T14:26:29.481Z,17.92
2023-04-08T14:28:55.926Z,16.08
2023-04-08T14:31:22.465Z,15.13
2023-04-08T14:33:48.919Z,16.95
2023-04-08T14:36:16.936Z,16.33
2023-04-08T14:38:43.479Z,14.00
2023-04-08T14:41:10.270Z,17.75
2023-04-08T14:43:36.809Z,14.45
2023-04-08T14:46:03.374Z,15.98
2023-04-08T14:48:30.708Z,16.27
2023-04-08T14:50:57.472Z,14.75
2023-04-08T14:53:24.019Z,15.93
2023-04-08T14:55:51.088Z,15.73
2023-04-08T14:58:18.187Z,12.80
2023-04-08T15:00:46.153Z,14.00
2023-04-08T15:03:12.705Z,14.85
2023-04-08T15:05:39.589Z,18.33
2023-04-08T15:08:06.159Z,14.15
2023-04-08T15:10:32.651Z,17.25
2023-04-08T15:12:59.052Z,15.75
2023-04-08T15:15:25.554Z,17.48
2023-04-08T15:17:52.382Z,16.35
2023-04-08T15:20:20.087Z,16.67
2023-04-08T15:22:46.807Z,13.98
2023-04-08T15:25:13.808Z,14.55
2023-04-08T15:27:41.428Z,14.63
2023-04-08T15:30:09.804Z,14.68
2023-04-08T15:32:37.287Z,15.30
2023-04-08T15:35:04.094Z,15.85
2023-04-08T15:37:30.869Z,14.00
2023-04-08T15:39:57.277Z,14.63
2023-04-08T15:42:23.722Z,14.10
2023-04-08T15:44:50.296Z,14.50
2023-04-08T15:47:16.952Z,14.43
2023-04-08T15:49:43.375Z,15.15
2023-04-08T15:52:09.845Z,16.33
2023-04-08T15:54:36.332Z,14.85
2023-04-08T15:57:03.312Z,15.40
2023-04-08T15:59:30.628Z,17.08
2023-04-08T16:01:57.215Z,17.65
2023-04-08T16:04:23.824Z,15.00
2023-04-08T16:06:50.553Z,15.27
2023-04-08T16:09:22.362Z,14.55
2023-04-08T16:11:48.843Z,16.35
2023-04-08T16:14:15.726Z,13.82
2023-04-08T16:16:42.989Z,13.73
2023-04-08T16:19:09.526Z,13.95
2023-04-08T16:21:36.090Z,14.43
2023-04-08T16:24:02.952Z,15.95
2023-04-08T16:26:29.996Z,15.85
2023-04-08T16:28:56.783Z,18.50
2023-04-08T16:31:23.383Z,16.85
2023-04-08T16:33:50.048Z,14.43
2023-04-08T16:36:17.163Z,15.68
2023-04-08T16:38:43.625Z,13.32
2023-04-08T16:41:10.139Z,15.75
2023-04-08T16:43:37.768Z,16.52
2023-04-08T16:46:16.104Z,14.00
2023-04-08T16:48:44.056Z,17.98
2023-04-08T16:51:11.563Z,15.85
2023-04-08T16:53:38.421Z,14.50
2023-04-08T16:56:05.760Z,19.02
2023-04-08T16:58:32.699Z,19.85
2023-04-08T17:00:59.420Z,20.15
2023-04-08T17:03:27.479Z,23.25
2023-04-08T17:05:53.964Z,24.63
2023-04-08T17:08:21.391Z,23.92
2023-04-08T17:10:49.606Z,26.13
2023-04-08T17:13:16.447Z,24.35
2023-04-08T17:15:43.010Z,24.95
2023-04-08T17:18:09.520Z,27.30
2023-04-08T17:20:36.203Z,30.55
2023-04-08T17:23:02.887Z,28.75
2023-04-08T17:25:29.469Z,31.30
2023-04-08T17:27:56.671Z,27.23
2023-04-08T17:30:23.127Z,28.95
2023-04-08T17:32:50.066Z,31.35
2023-04-08T17:35:17.243Z,31.48
2023-04-08T17:37:43.680Z,34.08
2023-04-08T17:40:10.406Z,30.65
2023-04-08T17:42:36.849Z,36.22
2023-04-08T17:45:03.648Z,32.53
2023-04-08T17:47:30.515Z,31.55
2023-04-08T17:49:57.027Z,32.78
2023-04-08T17:52:23.504Z,31.83
2023-04-08T17:54:50.209Z,34.45
2023-04-08T17:57:16.921Z,35.13
2023-04-08T17:59:43.344Z,35.88
2023-04-08T18:02:10.086Z,36.85
2023-04-08T18:04:36.597Z,36.70
2023-04-08T18:07:04.474Z,38.00
2023-04-08T18:09:31.410Z,39.88
2023-04-08T18:11:57.874Z,42.58
2023-04-08T18:14:24.295Z,45.80
2023-04-08T18:16:50.863Z,40.40
2023-04-08T18:19:17.378Z,39.90
2023-04-08T18:21:43.854Z,39.55
2023-04-08T18:24:10.312Z,38.03
2023-04-08T18:26:36.792Z,43.63
2023-04-08T18:29:03.306Z,36.97
2023-04-08T18:31:29.922Z,40.15
2023-04-08T18:33:56.772Z,41.03
2023-04-08T18:36:24.214Z,39.63
2023-04-08T18:38:50.703Z,40.00
2023-04-08T18:41:18.530Z,41.95
2023-04-08T18:43:44.985Z,39.50
2023-04-08T18:46:11.489Z,37.15
2023-04-08T18:48:37.979Z,37.13
2023-04-08T18:51:04.568Z,38.13
2023-04-08T18:53:31.254Z,39.22
2023-04-08T18:55:57.690Z,37.35
2023-04-08T18:58:24.294Z,35.05
2023-04-08T19:00:50.984Z,39.38
2023-04-08T19:03:17.543Z,36.90
2023-04-08T19:05:44.202Z,36.80
2023-04-08T19:08:10.700Z,35.80
2023-04-08T19:10:37.136Z,35.92
2023-04-08T19:13:03.742Z,35.85
2023-04-08T19:15:30.528Z,37.03
2023-04-08T19:17:57.141Z,34.45
2023-04-08T19:20:23.962Z,33.88
2023-04-08T19:22:50.560Z,37.13
2023-04-08T19:25:17.596Z,34.08
2023-04-08T19:27:45.719Z,33.88
2023-04-08T19:30:12.710Z,31.73
2023-04-08T19:32:39.339Z,29.73
2023-04-08T19:35:06.420Z,34.50
2023-04-08T19:37:32.901Z,30.95
2023-04-08T19:39:59.341Z,32.08
2023-04-08T19:42:25.834Z,31.33
2023-04-08T19:44:53.033Z,33.70
2023-04-08T19:47:19.877Z,31.45
2023-04-08T19:49:46.612Z,34.35
2023-04-08T19:52:13.141Z,34.35
2023-04-08T19:54:41.187Z,33.90
2023-04-08T19:57:09.263Z,32.20
2023-04-08T19:59:35.798Z,40.22
2023-04-08T20:02:03.890Z,32.28
2023-04-08T20:04:31.006Z,37.17
2023-04-08T20:06:57.778Z,40.90
2023-04-08T20:09:24.214Z,36.83
2023-04-08T20:11:51.030Z,32.42
2023-04-08T20:14:17.603Z,34.72
2023-04-08T20:16:44.066Z,34.35
2023-04-08T20:19:10.552Z,37.95
2023-04-08T20:21:37.731Z,35.40
2023-04-08T20:24:04.189Z,36.42
2023-04-08T20:26:30.747Z,36.97
2023-04-08T20:28:58.812Z,39.00
2023-04-08T20:31:26.671Z,39.78
2023-04-08T20:33:53.430Z,44.85
2023-04-08T20:36:19.998Z,40.97
2023-04-08T20:38:46.438Z,43.50
2023-04-08T20:41:18.055Z,38.83
2023-04-08T20:46:10.867Z,39.80
2023-04-08T20:48:37.428Z,39.50
2023-04-08T20:51:04.009Z,45.50
2023-04-08T20:53:31.424Z,44.08
2023-04-08T20:55:57.861Z,41.10
2023-04-08T20:58:24.320Z,36.25
2023-04-08T21:00:51.065Z,43.47
2023-04-08T21:03:17.584Z,43.83
2023-04-08T21:05:44.310Z,46.08
2023-04-08T21:08:10.778Z,48.15
2023-04-08T21:10:37.239Z,43.80
2023-04-08T21:13:03.732Z,42.28
2023-04-08T21:15:30.192Z,39.58
2023-04-08T21:17:56.739Z,43.00
2023-04-08T21:20:23.239Z,41.85
2023-04-08T21:22:49.732Z,40.17
2023-04-08T21:25:17.867Z,39.33
2023-04-08T21:27:44.391Z,40.90
2023-04-08T21:30:11.437Z,43.10
2023-04-08T21:32:37.915Z,42.58
2023-04-08T21:35:04.654Z,42.03
2023-04-08T21:37:31.135Z,45.40
2023-04-08T21:39:57.547Z,46.40
2023-04-08T21:42:25.122Z,48.83
2023-04-08T21:44:51.908Z,46.10
2023-04-08T21:47:18.410Z,49.63
2023-04-08T21:49:44.894Z,47.88
2023-04-08T21:52:11.368Z,49.28
2023-04-08T21:54:37.891Z,49.55
2023-04-08T21:57:04.675Z,48.47
2023-04-08T21:59:31.142Z,50.65
2023-04-08T22:01:57.678Z,46.95
2023-04-08T22:04:24.166Z,48.00
2023-04-08T22:06:51.270Z,48.95
2023-04-08T22:09:17.820Z,48.80
2023-04-08T22:11:44.465Z,50.00
2023-04-08T22:14:11.040Z,47.15
2023-04-08T22:16:38.163Z,46.45
2023-04-08T22:19:04.622Z,45.60
2023-04-08T22:21:31.513Z,44.20
2023-04-08T22:24:00.509Z,50.95
2023-04-08T22:26:27.552Z,46.65
2023-04-08T22:28:54.680Z,48.75
2023-04-08T22:31:21.692Z,48.33
2023-04-08T22:33:48.218Z,46.58
2023-04-08T22:36:14.687Z,45.42
2023-04-08T22:38:41.747Z,49.10
2023-04-08T22:41:24.940Z,47.08
2023-04-08T22:43:51.460Z,51.88
2023-04-08T22:46:21.274Z,43.65
2023-04-08T22:48:49.356Z,43.15
2023-04-08T22:51:16.159Z,45.65
2023-04-08T22:53:42.710Z,49.20
2023-04-08T22:56:09.452Z,48.03
2023-04-08T22:58:36.230Z,46.13
2023-04-08T23:01:10.634Z,50.05
2023-04-08T23:03:37.073Z,50.15
2023-04-08T23:06:03.558Z,46.75
2023-04-08T23:08:30.215Z,49.00
2023-04-08T23:10:56.650Z,53.17
2023-04-08T23:13:23.207Z,52.70
2023-04-08T23:15:49.650Z,50.10
2023-04-08T23:18:16.048Z,50.10
2023-04-08T23:20:43.527Z,45.65
2023-04-08T23:23:10.246Z,49.47
2023-04-08T23:25:36.919Z,46.65
2023-04-08T23:28:03.389Z,48.78
2023-04-08T23:30:29.837Z,50.35
2023-04-08T23:32:56.337Z,48.67
2023-04-08T23:35:22.855Z,47.45
2023-04-08T23:37:49.341Z,51.13
2023-04-08T23:40:15.828Z,51.83
2023-04-08T23:42:42.227Z,48.10
2023-04-08T23:45:08.954Z,48.55
2023-04-08T23:47:35.439Z,53.15
2023-04-08T23:50:02.256Z,52.80
2023-04-08T23:52:28.736Z,46.90
2023-04-08T23:54:55.274Z,51.60
2023-04-08T23:57:21.919Z,49.78
2023-04-08T23:59:48.500Z,54.00
